sensor_id;sensor_type;location;lat;lon;timestamp;P1;durP1;ratioP1;P2;durP2;ratioP2
3149;SDS011;32503;47.748;8.960;2022-10-16T00:01:34;3.53;;;3.27;;
3149;SDS011;32503;47.748;8.960;2022-10-16T00:04:02;5.37;;;4.90;;
3149;SDS011;32503;47.748;8.960;2022-10-16T00:06:29;5.13;;;4.33;;
3149;SDS011;32503;47.748;8.960;2022-10-16T00:08:57;9.37;;;3.87;;
3149;SDS011;32503;47.748;8.960;2022-10-16T00:11:25;3.33;;;3.10;;
3149;SDS011;32503;47.748;8.960;2022-10-16T00:13:56;4.60;;;3.30;;
3149;SDS011;32503;47.748;8.960;2022-10-16T00:16:25;2.70;;;2.60;;
3149;SDS011;32503;47.748;8.960;2022-10-16T00:18:52;3.10;;;2.90;;
3149;SDS011;32503;47.748;8.960;2022-10-16T00:21:20;3.70;;;2.67;;
3149;SDS011;32503;47.748;8.960;2022-10-16T00:23:49;4.33;;;3.93;;
3149;SDS011;32503;47.748;8.960;2022-10-16T00:26:17;3.03;;;2.83;;
3149;SDS011;32503;47.748;8.960;2022-10-16T00:28:45;2.90;;;2.40;;
3149;SDS011;32503;47.748;8.960;2022-10-16T00:31:15;2.53;;;2.43;;
3149;SDS011;32503;47.748;8.960;2022-10-16T00:33:44;3.17;;;2.97;;
3149;SDS011;32503;47.748;8.960;2022-10-16T00:36:12;2.67;;;2.57;;
3149;SDS011;32503;47.748;8.960;2022-10-16T00:38:41;2.90;;;2.80;;
3149;SDS011;32503;47.748;8.960;2022-10-16T00:41:09;3.20;;;2.97;;
3149;SDS011;32503;47.748;8.960;2022-10-16T00:43:40;2.87;;;2.67;;
3149;SDS011;32503;47.748;8.960;2022-10-16T00:46:11;2.93;;;2.70;;
3149;SDS011;32503;47.748;8.960;2022-10-16T00:48:46;2.37;;;2.27;;
3149;SDS011;32503;47.748;8.960;2022-10-16T00:51:21;2.70;;;2.50;;
3149;SDS011;32503;47.748;8.960;2022-10-16T00:53:54;2.43;;;2.30;;
3149;SDS011;32503;47.748;8.960;2022-10-16T00:56:22;2.57;;;2.37;;
3149;SDS011;32503;47.748;8.960;2022-10-16T00:58:49;3.00;;;2.90;;
3149;SDS011;32503;47.748;8.960;2022-10-16T01:01:18;3.00;;;2.80;;
3149;SDS011;32503;47.748;8.960;2022-10-16T01:03:45;2.47;;;2.37;;
3149;SDS011;32503;47.748;8.960;2022-10-16T01:06:16;2.40;;;2.30;;
3149;SDS011;32503;47.748;8.960;2022-10-16T01:08:56;2.53;;;2.43;;
3149;SDS011;32503;47.748;8.960;2022-10-16T01:11:39;6.40;;;3.50;;
3149;SDS011;32503;47.748;8.960;2022-10-16T01:14:16;2.97;;;2.80;;
3149;SDS011;32503;47.748;8.960;2022-10-16T01:16:57;5.30;;;3.40;;
3149;SDS011;32503;47.748;8.960;2022-10-16T01:19:36;2.90;;;2.80;;
3149;SDS011;32503;47.748;8.960;2022-10-16T01:22:20;3.60;;;3.30;;
3149;SDS011;32503;47.748;8.960;2022-10-16T01:24:52;3.17;;;3.07;;
3149;SDS011;32503;47.748;8.960;2022-10-16T01:27:27;2.80;;;2.67;;
3149;SDS011;32503;47.748;8.960;2022-10-16T01:30:03;4.57;;;3.63;;
3149;SDS011;32503;47.748;8.960;2022-10-16T01:32:37;3.47;;;3.27;;
3149;SDS011;32503;47.748;8.960;2022-10-16T01:35:09;3.30;;;3.10;;
3149;SDS011;32503;47.748;8.960;2022-10-16T01:37:46;3.40;;;3.20;;
3149;SDS011;32503;47.748;8.960;2022-10-16T01:40:16;3.27;;;3.07;;
3149;SDS011;32503;47.748;8.960;2022-10-16T01:42:49;3.30;;;3.20;;
3149;SDS011;32503;47.748;8.960;2022-10-16T01:45:21;3.40;;;3.10;;
3149;SDS011;32503;47.748;8.960;2022-10-16T01:47:49;3.70;;;3.40;;
3149;SDS011;32503;47.748;8.960;2022-10-16T01:50:18;3.27;;;3.07;;
3149;SDS011;32503;47.748;8.960;2022-10-16T01:52:47;3.93;;;3.47;;
3149;SDS011;32503;47.748;8.960;2022-10-16T01:55:18;3.10;;;2.90;;
3149;SDS011;32503;47.748;8.960;2022-10-16T01:57:56;3.30;;;3.10;;
3149;SDS011;32503;47.748;8.960;2022-10-16T02:00:25;3.10;;;2.80;;
3149;SDS011;32503;47.748;8.960;2022-10-16T02:02:55;3.33;;;3.10;;
3149;SDS011;32503;47.748;8.960;2022-10-16T02:05:25;3.10;;;2.90;;
3149;SDS011;32503;47.748;8.960;2022-10-16T02:07:57;3.30;;;3.10;;
3149;SDS011;32503;47.748;8.960;2022-10-16T02:10:24;3.40;;;3.20;;
3149;SDS011;32503;47.748;8.960;2022-10-16T02:12:57;3.17;;;2.87;;
3149;SDS011;32503;47.748;8.960;2022-10-16T02:15:29;2.73;;;2.53;;
3149;SDS011;32503;47.748;8.960;2022-10-16T02:17:56;2.63;;;2.53;;
3149;SDS011;32503;47.748;8.960;2022-10-16T02:20:24;3.10;;;3.00;;
3149;SDS011;32503;47.748;8.960;2022-10-16T02:22:54;2.60;;;2.43;;
3149;SDS011;32503;47.748;8.960;2022-10-16T02:25:24;4.33;;;3.17;;
3149;SDS011;32503;47.748;8.960;2022-10-16T02:27:57;3.33;;;3.23;;
3149;SDS011;32503;47.748;8.960;2022-10-16T02:30:30;2.70;;;2.50;;
3149;SDS011;32503;47.748;8.960;2022-10-16T02:33:02;2.97;;;2.77;;
3149;SDS011;32503;47.748;8.960;2022-10-16T02:35:33;2.73;;;2.53;;
3149;SDS011;32503;47.748;8.960;2022-10-16T02:38:01;2.77;;;2.67;;
3149;SDS011;32503;47.748;8.960;2022-10-16T02:40:30;2.80;;;2.60;;
3149;SDS011;32503;47.748;8.960;2022-10-16T02:42:59;3.27;;;3.07;;
3149;SDS011;32503;47.748;8.960;2022-10-16T02:45:26;4.20;;;2.80;;
3149;SDS011;32503;47.748;8.960;2022-10-16T02:47:54;2.87;;;2.67;;
3149;SDS011;32503;47.748;8.960;2022-10-16T02:50:21;3.10;;;2.90;;
3149;SDS011;32503;47.748;8.960;2022-10-16T02:52:49;3.37;;;3.17;;
3149;SDS011;32503;47.748;8.960;2022-10-16T02:55:16;3.47;;;3.17;;
3149;SDS011;32503;47.748;8.960;2022-10-16T02:57:43;2.67;;;2.53;;
3149;SDS011;32503;47.748;8.960;2022-10-16T03:00:13;3.50;;;3.30;;
3149;SDS011;32503;47.748;8.960;2022-10-16T03:02:42;3.27;;;3.10;;
3149;SDS011;32503;47.748;8.960;2022-10-16T03:05:09;2.57;;;2.47;;
3149;SDS011;32503;47.748;8.960;2022-10-16T03:07:37;3.30;;;3.10;;
3149;SDS011;32503;47.748;8.960;2022-10-16T03:10:04;3.70;;;3.40;;
3149;SDS011;32503;47.748;8.960;2022-10-16T03:12:32;2.53;;;2.43;;
3149;SDS011;32503;47.748;8.960;2022-10-16T03:14:59;3.30;;;3.20;;
3149;SDS011;32503;47.748;8.960;2022-10-16T03:17:28;2.60;;;2.50;;
3149;SDS011;32503;47.748;8.960;2022-10-16T03:19:55;3.20;;;2.90;;
3149;SDS011;32503;47.748;8.960;2022-10-16T03:22:22;3.50;;;3.30;;
3149;SDS011;32503;47.748;8.960;2022-10-16T03:24:49;5.20;;;3.40;;
3149;SDS011;32503;47.748;8.960;2022-10-16T03:27:16;3.03;;;2.83;;
3149;SDS011;32503;47.748;8.960;2022-10-16T03:29:43;6.40;;;3.80;;
3149;SDS011;32503;47.748;8.960;2022-10-16T03:32:10;2.87;;;2.77;;
3149;SDS011;32503;47.748;8.960;2022-10-16T03:34:38;2.97;;;2.87;;
3149;SDS011;32503;47.748;8.960;2022-10-16T03:37:05;2.50;;;2.40;;
3149;SDS011;32503;47.748;8.960;2022-10-16T03:39:32;4.07;;;2.80;;
3149;SDS011;32503;47.748;8.960;2022-10-16T03:41:59;3.10;;;2.77;;
3149;SDS011;32503;47.748;8.960;2022-10-16T03:44:26;3.17;;;2.97;;
3149;SDS011;32503;47.748;8.960;2022-10-16T03:46:53;2.87;;;2.67;;
3149;SDS011;32503;47.748;8.960;2022-10-16T03:49:20;3.00;;;2.87;;
3149;SDS011;32503;47.748;8.960;2022-10-16T03:51:48;2.70;;;2.53;;
3149;SDS011;32503;47.748;8.960;2022-10-16T03:54:15;3.53;;;3.17;;
3149;SDS011;32503;47.748;8.960;2022-10-16T03:56:42;2.83;;;2.63;;
3149;SDS011;32503;47.748;8.960;2022-10-16T03:59:09;3.53;;;3.17;;
3149;SDS011;32503;47.748;8.960;2022-10-16T04:01:37;2.80;;;2.60;;
3149;SDS011;32503;47.748;8.960;2022-10-16T04:04:04;2.47;;;2.37;;
3149;SDS011;32503;47.748;8.960;2022-10-16T04:06:31;3.20;;;3.10;;
3149;SDS011;32503;47.748;8.960;2022-10-16T04:08:59;3.67;;;3.27;;
3149;SDS011;32503;47.748;8.960;2022-10-16T04:11:26;3.37;;;2.90;;
3149;SDS011;32503;47.748;8.960;2022-10-16T04:13:53;2.70;;;2.60;;
3149;SDS011;32503;47.748;8.960;2022-10-16T04:16:20;2.97;;;2.87;;
3149;SDS011;32503;47.748;8.960;2022-10-16T04:18:47;2.53;;;2.43;;
3149;SDS011;32503;47.748;8.960;2022-10-16T04:21:14;2.90;;;2.70;;
3149;SDS011;32503;47.748;8.960;2022-10-16T04:23:41;2.53;;;2.43;;
3149;SDS011;32503;47.748;8.960;2022-10-16T04:26:10;5.20;;;3.00;;
3149;SDS011;32503;47.748;8.960;2022-10-16T04:28:37;2.70;;;2.50;;
3149;SDS011;32503;47.748;8.960;2022-10-16T04:31:04;2.47;;;2.37;;
3149;SDS011;32503;47.748;8.960;2022-10-16T04:33:32;2.50;;;2.40;;
3149;SDS011;32503;47.748;8.960;2022-10-16T04:35:59;2.80;;;2.63;;
3149;SDS011;32503;47.748;8.960;2022-10-16T04:38:28;2.60;;;2.40;;
3149;SDS011;32503;47.748;8.960;2022-10-16T04:40:55;3.30;;;3.10;;
3149;SDS011;32503;47.748;8.960;2022-10-16T04:43:24;2.80;;;2.70;;
3149;SDS011;32503;47.748;8.960;2022-10-16T04:45:51;2.77;;;2.67;;
3149;SDS011;32503;47.748;8.960;2022-10-16T04:48:19;3.30;;;2.87;;
3149;SDS011;32503;47.748;8.960;2022-10-16T04:50:46;3.33;;;2.30;;
3149;SDS011;32503;47.748;8.960;2022-10-16T04:53:13;3.10;;;2.90;;
3149;SDS011;32503;47.748;8.960;2022-10-16T04:55:41;2.50;;;2.40;;
3149;SDS011;32503;47.748;8.960;2022-10-16T04:58:08;2.50;;;2.40;;
3149;SDS011;32503;47.748;8.960;2022-10-16T05:00:37;2.93;;;2.73;;
3149;SDS011;32503;47.748;8.960;2022-10-16T05:03:04;2.43;;;2.33;;
3149;SDS011;32503;47.748;8.960;2022-10-16T05:05:33;3.30;;;3.10;;
3149;SDS011;32503;47.748;8.960;2022-10-16T05:08:01;2.97;;;2.87;;
3149;SDS011;32503;47.748;8.960;2022-10-16T05:10:29;3.27;;;2.80;;
3149;SDS011;32503;47.748;8.960;2022-10-16T05:12:56;2.60;;;2.50;;
3149;SDS011;32503;47.748;8.960;2022-10-16T05:15:23;3.40;;;3.03;;
3149;SDS011;32503;47.748;8.960;2022-10-16T05:17:53;4.17;;;3.43;;
3149;SDS011;32503;47.748;8.960;2022-10-16T05:20:21;2.67;;;2.47;;
3149;SDS011;32503;47.748;8.960;2022-10-16T05:22:48;2.90;;;2.70;;
3149;SDS011;32503;47.748;8.960;2022-10-16T05:25:15;2.77;;;2.67;;
3149;SDS011;32503;47.748;8.960;2022-10-16T05:27:43;3.20;;;3.00;;
3149;SDS011;32503;47.748;8.960;2022-10-16T05:30:13;3.00;;;2.90;;
3149;SDS011;32503;47.748;8.960;2022-10-16T05:32:40;3.03;;;2.93;;
3149;SDS011;32503;47.748;8.960;2022-10-16T05:35:09;4.37;;;2.90;;
3149;SDS011;32503;47.748;8.960;2022-10-16T05:37:36;3.90;;;3.70;;
3149;SDS011;32503;47.748;8.960;2022-10-16T05:40:03;3.20;;;3.00;;
3149;SDS011;32503;47.748;8.960;2022-10-16T05:42:31;4.63;;;2.87;;
3149;SDS011;32503;47.748;8.960;2022-10-16T05:44:58;3.30;;;3.10;;
3149;SDS011;32503;47.748;8.960;2022-10-16T05:47:25;2.70;;;2.60;;
3149;SDS011;32503;47.748;8.960;2022-10-16T05:49:52;3.37;;;3.17;;
3149;SDS011;32503;47.748;8.960;2022-10-16T05:52:21;4.50;;;4.10;;
3149;SDS011;32503;47.748;8.960;2022-10-16T05:54:48;5.87;;;3.90;;
3149;SDS011;32503;47.748;8.960;2022-10-16T05:57:15;2.90;;;2.70;;
3149;SDS011;32503;47.748;8.960;2022-10-16T05:59:42;3.37;;;3.17;;
3149;SDS011;32503;47.748;8.960;2022-10-16T06:02:10;3.27;;;3.17;;
3149;SDS011;32503;47.748;8.960;2022-10-16T06:04:39;3.63;;;3.33;;
3149;SDS011;32503;47.748;8.960;2022-10-16T06:07:06;3.63;;;3.43;;
3149;SDS011;32503;47.748;8.960;2022-10-16T06:09:35;4.07;;;3.80;;
3149;SDS011;32503;47.748;8.960;2022-10-16T06:12:02;3.30;;;3.10;;
3149;SDS011;32503;47.748;8.960;2022-10-16T06:14:29;2.83;;;2.70;;
3149;SDS011;32503;47.748;8.960;2022-10-16T06:16:56;3.03;;;2.83;;
3149;SDS011;32503;47.748;8.960;2022-10-16T06:19:23;2.97;;;2.77;;
3149;SDS011;32503;47.748;8.960;2022-10-16T06:21:50;2.90;;;2.70;;
3149;SDS011;32503;47.748;8.960;2022-10-16T06:24:17;4.03;;;3.27;;
3149;SDS011;32503;47.748;8.960;2022-10-16T06:26:45;3.83;;;3.60;;
3149;SDS011;32503;47.748;8.960;2022-10-16T06:29:12;3.53;;;3.07;;
3149;SDS011;32503;47.748;8.960;2022-10-16T06:31:39;3.10;;;2.90;;
3149;SDS011;32503;47.748;8.960;2022-10-16T06:34:08;3.33;;;3.13;;
3149;SDS011;32503;47.748;8.960;2022-10-16T06:36:36;3.47;;;3.27;;
3149;SDS011;32503;47.748;8.960;2022-10-16T06:39:04;4.80;;;4.40;;
3149;SDS011;32503;47.748;8.960;2022-10-16T06:41:32;4.17;;;3.67;;
3149;SDS011;32503;47.748;8.960;2022-10-16T06:44:01;4.73;;;3.87;;
3149;SDS011;32503;47.748;8.960;2022-10-16T06:46:32;3.57;;;3.37;;
3149;SDS011;32503;47.748;8.960;2022-10-16T06:48:59;4.53;;;3.70;;
3149;SDS011;32503;47.748;8.960;2022-10-16T06:51:27;4.23;;;3.83;;
3149;SDS011;32503;47.748;8.960;2022-10-16T06:53:55;3.63;;;3.43;;
3149;SDS011;32503;47.748;8.960;2022-10-16T06:56:23;4.97;;;4.57;;
3149;SDS011;32503;47.748;8.960;2022-10-16T06:58:52;4.40;;;4.10;;
3149;SDS011;32503;47.748;8.960;2022-10-16T07:01:21;4.60;;;4.20;;
3149;SDS011;32503;47.748;8.960;2022-10-16T07:03:50;3.83;;;3.60;;
3149;SDS011;32503;47.748;8.960;2022-10-16T07:06:18;3.93;;;3.63;;
3149;SDS011;32503;47.748;8.960;2022-10-16T07:08:46;3.60;;;3.40;;
3149;SDS011;32503;47.748;8.960;2022-10-16T07:11:14;3.67;;;3.47;;
3149;SDS011;32503;47.748;8.960;2022-10-16T07:13:45;6.87;;;5.23;;
3149;SDS011;32503;47.748;8.960;2022-10-16T07:16:14;12.00;;;6.03;;
3149;SDS011;32503;47.748;8.960;2022-10-16T07:18:45;5.50;;;5.10;;
3149;SDS011;32503;47.748;8.960;2022-10-16T07:21:14;6.03;;;5.57;;
3149;SDS011;32503;47.748;8.960;2022-10-16T07:23:44;5.57;;;5.00;;
3149;SDS011;32503;47.748;8.960;2022-10-16T07:26:12;4.50;;;4.13;;
3149;SDS011;32503;47.748;8.960;2022-10-16T07:28:40;5.87;;;5.43;;
3149;SDS011;32503;47.748;8.960;2022-10-16T07:31:10;5.70;;;5.20;;
3149;SDS011;32503;47.748;8.960;2022-10-16T07:33:42;5.90;;;5.50;;
3149;SDS011;32503;47.748;8.960;2022-10-16T07:36:13;6.37;;;5.53;;
3149;SDS011;32503;47.748;8.960;2022-10-16T07:38:40;6.30;;;5.70;;
3149;SDS011;32503;47.748;8.960;2022-10-16T07:41:09;5.80;;;5.40;;
3149;SDS011;32503;47.748;8.960;2022-10-16T07:43:38;5.70;;;5.20;;
3149;SDS011;32503;47.748;8.960;2022-10-16T07:46:05;4.00;;;3.80;;
3149;SDS011;32503;47.748;8.960;2022-10-16T07:48:33;6.27;;;5.37;;
3149;SDS011;32503;47.748;8.960;2022-10-16T07:51:03;7.93;;;6.10;;
3149;SDS011;32503;47.748;8.960;2022-10-16T07:53:32;5.70;;;5.37;;
3149;SDS011;32503;47.748;8.960;2022-10-16T07:55:59;5.97;;;5.37;;
3149;SDS011;32503;47.748;8.960;2022-10-16T07:58:28;5.63;;;5.10;;
3149;SDS011;32503;47.748;8.960;2022-10-16T08:00:55;8.53;;;6.90;;
3149;SDS011;32503;47.748;8.960;2022-10-16T08:03:23;6.30;;;5.70;;
3149;SDS011;32503;47.748;8.960;2022-10-16T08:05:51;5.40;;;5.00;;
3149;SDS011;32503;47.748;8.960;2022-10-16T08:08:19;4.10;;;3.90;;
3149;SDS011;32503;47.748;8.960;2022-10-16T08:10:46;6.17;;;5.57;;
3149;SDS011;32503;47.748;8.960;2022-10-16T08:13:13;5.20;;;4.80;;
3149;SDS011;32503;47.748;8.960;2022-10-16T08:15:40;6.20;;;5.17;;
3149;SDS011;32503;47.748;8.960;2022-10-16T08:18:09;5.10;;;4.70;;
3149;SDS011;32503;47.748;8.960;2022-10-16T08:20:37;5.57;;;5.10;;
3149;SDS011;32503;47.748;8.960;2022-10-16T08:23:05;4.37;;;3.97;;
3149;SDS011;32503;47.748;8.960;2022-10-16T08:25:35;4.50;;;4.20;;
3149;SDS011;32503;47.748;8.960;2022-10-16T08:28:03;4.13;;;3.93;;
3149;SDS011;32503;47.748;8.960;2022-10-16T08:30:31;7.57;;;4.73;;
3149;SDS011;32503;47.748;8.960;2022-10-16T08:32:58;7.43;;;4.60;;
3149;SDS011;32503;47.748;8.960;2022-10-16T08:35:26;5.20;;;4.90;;
3149;SDS011;32503;47.748;8.960;2022-10-16T08:37:53;3.87;;;3.57;;
3149;SDS011;32503;47.748;8.960;2022-10-16T08:40:23;5.17;;;4.70;;
3149;SDS011;32503;47.748;8.960;2022-10-16T08:42:56;5.10;;;4.70;;
3149;SDS011;32503;47.748;8.960;2022-10-16T08:45:55;4.27;;;4.03;;
3149;SDS011;32503;47.748;8.960;2022-10-16T08:48:43;3.97;;;3.77;;
3149;SDS011;32503;47.748;8.960;2022-10-16T08:51:16;4.53;;;4.20;;
3149;SDS011;32503;47.748;8.960;2022-10-16T08:53:49;4.33;;;4.13;;
3149;SDS011;32503;47.748;8.960;2022-10-16T08:56:21;4.73;;;4.43;;
3149;SDS011;32503;47.748;8.960;2022-10-16T08:58:50;4.80;;;4.50;;
3149;SDS011;32503;47.748;8.960;2022-10-16T09:01:19;3.57;;;3.30;;
3149;SDS011;32503;47.748;8.960;2022-10-16T09:03:53;3.67;;;3.47;;
3149;SDS011;32503;47.748;8.960;2022-10-16T09:06:52;4.07;;;3.87;;
3149;SDS011;32503;47.748;8.960;2022-10-16T09:09:30;3.50;;;3.30;;
3149;SDS011;32503;47.748;8.960;2022-10-16T09:12:17;4.50;;;4.30;;
3149;SDS011;32503;47.748;8.960;2022-10-16T09:14:55;6.40;;;4.40;;
3149;SDS011;32503;47.748;8.960;2022-10-16T09:17:41;4.60;;;4.20;;
3149;SDS011;32503;47.748;8.960;2022-10-16T09:20:29;4.83;;;4.03;;
3149;SDS011;32503;47.748;8.960;2022-10-16T09:23:10;4.30;;;3.70;;
3149;SDS011;32503;47.748;8.960;2022-10-16T09:25:43;8.33;;;3.80;;
3149;SDS011;32503;47.748;8.960;2022-10-16T09:28:13;4.67;;;4.37;;
3149;SDS011;32503;47.748;8.960;2022-10-16T09:30:43;3.30;;;3.10;;
3149;SDS011;32503;47.748;8.960;2022-10-16T09:33:12;4.27;;;4.07;;
3149;SDS011;32503;47.748;8.960;2022-10-16T09:35:40;3.73;;;3.53;;
3149;SDS011;32503;47.748;8.960;2022-10-16T09:38:20;4.50;;;4.20;;
3149;SDS011;32503;47.748;8.960;2022-10-16T09:40:50;3.73;;;3.53;;
3149;SDS011;32503;47.748;8.960;2022-10-16T09:43:20;4.20;;;4.00;;
3149;SDS011;32503;47.748;8.960;2022-10-16T09:46:00;4.27;;;4.07;;
3149;SDS011;32503;47.748;8.960;2022-10-16T09:48:31;3.70;;;3.50;;
3149;SDS011;32503;47.748;8.960;2022-10-16T09:51:04;3.90;;;3.70;;
3149;SDS011;32503;47.748;8.960;2022-10-16T09:53:43;3.27;;;3.10;;
3149;SDS011;32503;47.748;8.960;2022-10-16T09:56:20;3.30;;;3.13;;
3149;SDS011;32503;47.748;8.960;2022-10-16T09:58:49;3.40;;;3.20;;
3149;SDS011;32503;47.748;8.960;2022-10-16T10:01:19;4.27;;;4.07;;
3149;SDS011;32503;47.748;8.960;2022-10-16T10:03:48;4.10;;;3.90;;
3149;SDS011;32503;47.748;8.960;2022-10-16T10:06:18;3.77;;;3.57;;
3149;SDS011;32503;47.748;8.960;2022-10-16T10:08:55;4.27;;;3.97;;
3149;SDS011;32503;47.748;8.960;2022-10-16T10:11:41;3.40;;;3.20;;
3149;SDS011;32503;47.748;8.960;2022-10-16T10:14:16;3.43;;;3.23;;
3149;SDS011;32503;47.748;8.960;2022-10-16T10:16:49;3.70;;;3.53;;
3149;SDS011;32503;47.748;8.960;2022-10-16T10:19:18;3.93;;;3.73;;
3149;SDS011;32503;47.748;8.960;2022-10-16T10:21:47;3.33;;;3.13;;
3149;SDS011;32503;47.748;8.960;2022-10-16T10:24:17;2.77;;;2.67;;
3149;SDS011;32503;47.748;8.960;2022-10-16T10:26:50;2.57;;;2.47;;
3149;SDS011;32503;47.748;8.960;2022-10-16T10:29:29;2.60;;;2.50;;
3149;SDS011;32503;47.748;8.960;2022-10-16T10:32:14;3.27;;;3.17;;
3149;SDS011;32503;47.748;8.960;2022-10-16T10:34:57;2.90;;;2.70;;
3149;SDS011;32503;47.748;8.960;2022-10-16T10:37:46;5.20;;;3.10;;
3149;SDS011;32503;47.748;8.960;2022-10-16T10:40:30;2.90;;;2.80;;
3149;SDS011;32503;47.748;8.960;2022-10-16T10:43:14;2.67;;;2.43;;
3149;SDS011;32503;47.748;8.960;2022-10-16T10:46:01;3.27;;;3.07;;
3149;SDS011;32503;47.748;8.960;2022-10-16T10:48:47;2.90;;;2.37;;
3149;SDS011;32503;47.748;8.960;2022-10-16T10:51:30;2.87;;;2.67;;
3149;SDS011;32503;47.748;8.960;2022-10-16T10:54:11;2.93;;;2.83;;
3149;SDS011;32503;47.748;8.960;2022-10-16T10:56:47;3.20;;;2.93;;
3149;SDS011;32503;47.748;8.960;2022-10-16T10:59:30;3.23;;;3.13;;
3149;SDS011;32503;47.748;8.960;2022-10-16T11:02:26;2.80;;;2.60;;
3149;SDS011;32503;47.748;8.960;2022-10-16T11:05:12;3.30;;;3.20;;
3149;SDS011;32503;47.748;8.960;2022-10-16T11:08:08;2.93;;;2.83;;
3149;SDS011;32503;47.748;8.960;2022-10-16T11:10:46;2.03;;;1.93;;
3149;SDS011;32503;47.748;8.960;2022-10-16T11:13:21;2.73;;;2.60;;
3149;SDS011;32503;47.748;8.960;2022-10-16T11:15:58;2.40;;;2.23;;
3149;SDS011;32503;47.748;8.960;2022-10-16T11:18:30;3.03;;;2.87;;
3149;SDS011;32503;47.748;8.960;2022-10-16T11:21:12;3.40;;;3.20;;
3149;SDS011;32503;47.748;8.960;2022-10-16T11:23:43;2.47;;;2.37;;
3149;SDS011;32503;47.748;8.960;2022-10-16T11:26:20;3.17;;;3.07;;
3149;SDS011;32503;47.748;8.960;2022-10-16T11:28:51;2.37;;;2.27;;
3149;SDS011;32503;47.748;8.960;2022-10-16T11:31:22;3.77;;;3.60;;
3149;SDS011;32503;47.748;8.960;2022-10-16T11:33:58;2.60;;;2.50;;
3149;SDS011;32503;47.748;8.960;2022-10-16T11:36:35;3.10;;;3.00;;
3149;SDS011;32503;47.748;8.960;2022-10-16T11:39:09;3.60;;;3.40;;
3149;SDS011;32503;47.748;8.960;2022-10-16T11:41:47;3.57;;;3.10;;
3149;SDS011;32503;47.748;8.960;2022-10-16T11:44:20;3.20;;;3.00;;
3149;SDS011;32503;47.748;8.960;2022-10-16T11:47:07;3.67;;;3.43;;
3149;SDS011;32503;47.748;8.960;2022-10-16T11:49:45;2.70;;;2.60;;
3149;SDS011;32503;47.748;8.960;2022-10-16T11:52:19;2.57;;;2.47;;
3149;SDS011;32503;47.748;8.960;2022-10-16T11:54:52;2.63;;;2.53;;
3149;SDS011;32503;47.748;8.960;2022-10-16T11:57:26;2.77;;;2.67;;
3149;SDS011;32503;47.748;8.960;2022-10-16T11:59:58;2.40;;;2.30;;
3149;SDS011;32503;47.748;8.960;2022-10-16T12:02:38;2.57;;;2.47;;
3149;SDS011;32503;47.748;8.960;2022-10-16T12:05:19;2.53;;;2.30;;
3149;SDS011;32503;47.748;8.960;2022-10-16T12:07:59;3.00;;;2.80;;
3149;SDS011;32503;47.748;8.960;2022-10-16T12:10:36;2.33;;;2.23;;
3149;SDS011;32503;47.748;8.960;2022-10-16T12:13:05;2.57;;;2.47;;
3149;SDS011;32503;47.748;8.960;2022-10-16T12:16:03;2.10;;;2.00;;
3149;SDS011;32503;47.748;8.960;2022-10-16T12:18:49;2.03;;;1.93;;
3149;SDS011;32503;47.748;8.960;2022-10-16T12:21:40;1.70;;;1.60;;
3149;SDS011;32503;47.748;8.960;2022-10-16T12:24:19;2.20;;;2.10;;
3149;SDS011;32503;47.748;8.960;2022-10-16T12:26:54;2.10;;;2.00;;
3149;SDS011;32503;47.748;8.960;2022-10-16T12:29:23;2.10;;;2.00;;
3149;SDS011;32503;47.748;8.960;2022-10-16T12:32:04;1.93;;;1.83;;
3149;SDS011;32503;47.748;8.960;2022-10-16T12:34:50;2.00;;;1.90;;
3149;SDS011;32503;47.748;8.960;2022-10-16T12:37:19;2.30;;;2.20;;
3149;SDS011;32503;47.748;8.960;2022-10-16T12:39:52;2.07;;;1.97;;
3149;SDS011;32503;47.748;8.960;2022-10-16T12:42:32;1.73;;;1.63;;
3149;SDS011;32503;47.748;8.960;2022-10-16T12:45:01;1.77;;;1.67;;
3149;SDS011;32503;47.748;8.960;2022-10-16T12:47:49;1.73;;;1.63;;
3149;SDS011;32503;47.748;8.960;2022-10-16T12:53:17;1.70;;;1.60;;
3149;SDS011;32503;47.748;8.960;2022-10-16T12:55:52;1.47;;;1.37;;
3149;SDS011;32503;47.748;8.960;2022-10-16T12:58:39;1.57;;;1.47;;
3149;SDS011;32503;47.748;8.960;2022-10-16T13:01:29;1.60;;;1.50;;
3149;SDS011;32503;47.748;8.960;2022-10-16T13:04:13;1.50;;;1.40;;
3149;SDS011;32503;47.748;8.960;2022-10-16T13:07:12;3.00;;;1.50;;
3149;SDS011;32503;47.748;8.960;2022-10-16T13:09:58;1.77;;;1.67;;
3149;SDS011;32503;47.748;8.960;2022-10-16T13:12:44;1.40;;;1.30;;
3149;SDS011;32503;47.748;8.960;2022-10-16T13:15:35;1.70;;;1.60;;
3149;SDS011;32503;47.748;8.960;2022-10-16T13:18:20;1.50;;;1.40;;
3149;SDS011;32503;47.748;8.960;2022-10-16T13:20:56;1.83;;;1.73;;
3149;SDS011;32503;47.748;8.960;2022-10-16T13:23:38;1.60;;;1.50;;
3149;SDS011;32503;47.748;8.960;2022-10-16T13:26:17;2.00;;;1.90;;
3149;SDS011;32503;47.748;8.960;2022-10-16T13:28:59;1.80;;;1.70;;
3149;SDS011;32503;47.748;8.960;2022-10-16T13:31:27;1.70;;;1.60;;
3149;SDS011;32503;47.748;8.960;2022-10-16T13:33:56;1.63;;;1.53;;
3149;SDS011;32503;47.748;8.960;2022-10-16T13:36:26;2.83;;;2.73;;
3149;SDS011;32503;47.748;8.960;2022-10-16T13:38:59;2.40;;;2.30;;
3149;SDS011;32503;47.748;8.960;2022-10-16T13:41:35;2.03;;;1.93;;
3149;SDS011;32503;47.748;8.960;2022-10-16T13:44:04;1.90;;;1.80;;
3149;SDS011;32503;47.748;8.960;2022-10-16T13:46:39;2.13;;;1.90;;
3149;SDS011;32503;47.748;8.960;2022-10-16T13:49:11;2.10;;;2.00;;
3149;SDS011;32503;47.748;8.960;2022-10-16T13:51:40;1.73;;;1.50;;
3149;SDS011;32503;47.748;8.960;2022-10-16T13:54:09;1.50;;;1.40;;
3149;SDS011;32503;47.748;8.960;2022-10-16T13:56:38;2.40;;;2.30;;
3149;SDS011;32503;47.748;8.960;2022-10-16T13:59:22;2.53;;;1.70;;
3149;SDS011;32503;47.748;8.960;2022-10-16T14:01:52;1.93;;;1.83;;
3149;SDS011;32503;47.748;8.960;2022-10-16T14:04:23;2.40;;;2.30;;
3149;SDS011;32503;47.748;8.960;2022-10-16T14:06:58;2.10;;;2.00;;
3149;SDS011;32503;47.748;8.960;2022-10-16T14:09:26;1.83;;;1.73;;
3149;SDS011;32503;47.748;8.960;2022-10-16T14:11:55;2.63;;;2.43;;
3149;SDS011;32503;47.748;8.960;2022-10-16T14:14:27;1.80;;;1.70;;
3149;SDS011;32503;47.748;8.960;2022-10-16T14:17:00;2.10;;;2.00;;
3149;SDS011;32503;47.748;8.960;2022-10-16T14:19:29;2.00;;;1.90;;
3149;SDS011;32503;47.748;8.960;2022-10-16T14:21:57;1.60;;;1.50;;
3149;SDS011;32503;47.748;8.960;2022-10-16T14:24:31;1.70;;;1.60;;
3149;SDS011;32503;47.748;8.960;2022-10-16T14:27:00;2.17;;;1.80;;
3149;SDS011;32503;47.748;8.960;2022-10-16T14:29:29;1.60;;;1.50;;
3149;SDS011;32503;47.748;8.960;2022-10-16T14:31:57;1.60;;;1.50;;
3149;SDS011;32503;47.748;8.960;2022-10-16T14:34:28;2.17;;;1.97;;
3149;SDS011;32503;47.748;8.960;2022-10-16T14:36:59;1.70;;;1.60;;
3149;SDS011;32503;47.748;8.960;2022-10-16T14:39:32;2.07;;;1.97;;
3149;SDS011;32503;47.748;8.960;2022-10-16T14:42:00;1.33;;;1.23;;
3149;SDS011;32503;47.748;8.960;2022-10-16T14:44:31;1.80;;;1.70;;
3149;SDS011;32503;47.748;8.960;2022-10-16T14:47:06;1.30;;;1.20;;
3149;SDS011;32503;47.748;8.960;2022-10-16T14:49:36;1.90;;;1.80;;
3149;SDS011;32503;47.748;8.960;2022-10-16T14:52:05;1.73;;;1.63;;
3149;SDS011;32503;47.748;8.960;2022-10-16T14:54:36;1.93;;;1.83;;
3149;SDS011;32503;47.748;8.960;2022-10-16T14:57:03;1.60;;;1.50;;
3149;SDS011;32503;47.748;8.960;2022-10-16T14:59:34;1.70;;;1.60;;
3149;SDS011;32503;47.748;8.960;2022-10-16T15:02:15;2.10;;;1.77;;
3149;SDS011;32503;47.748;8.960;2022-10-16T15:04:55;1.67;;;1.57;;
3149;SDS011;32503;47.748;8.960;2022-10-16T15:07:23;2.30;;;2.20;;
3149;SDS011;32503;47.748;8.960;2022-10-16T15:09:50;2.50;;;2.40;;
3149;SDS011;32503;47.748;8.960;2022-10-16T15:12:18;2.40;;;2.30;;
3149;SDS011;32503;47.748;8.960;2022-10-16T15:14:47;2.37;;;2.27;;
3149;SDS011;32503;47.748;8.960;2022-10-16T15:17:14;2.13;;;2.03;;
3149;SDS011;32503;47.748;8.960;2022-10-16T15:19:41;1.90;;;1.80;;
3149;SDS011;32503;47.748;8.960;2022-10-16T15:22:08;1.70;;;1.60;;
3149;SDS011;32503;47.748;8.960;2022-10-16T15:24:36;1.90;;;1.80;;
3149;SDS011;32503;47.748;8.960;2022-10-16T15:27:04;1.43;;;1.33;;
3149;SDS011;32503;47.748;8.960;2022-10-16T15:29:31;5.83;;;2.97;;
3149;SDS011;32503;47.748;8.960;2022-10-16T15:31:59;5.13;;;4.00;;